createdAt,value
2023-04-02T00:01:44.311Z,83.93
2023-04-02T00:04:22.398Z,83.86
2023-04-02T00:07:30.313Z,83.87
2023-04-02T00:09:59.889Z,83.95
2023-04-02T00:12:30.815Z,83.65
2023-04-02T00:14:59.868Z,83.66
2023-04-02T00:17:28.727Z,83.50
2023-04-02T00:20:01.908Z,83.72
2023-04-02T00:22:33.686Z,83.45
2023-04-02T00:25:11.121Z,83.26
2023-04-02T00:27:41.190Z,83.00
2023-04-02T00:30:13.714Z,82.88
2023-04-02T00:32:43.448Z,83.04
2023-04-02T00:35:17.580Z,83.17
2023-04-02T00:37:48.034Z,83.52
2023-04-02T00:40:24.027Z,83.91
2023-04-02T00:42:54.976Z,83.85
2023-04-02T00:45:28.481Z,83.96
2023-04-02T00:48:14.520Z,83.49
2023-04-02T00:50:46.745Z,83.70
2023-04-02T00:53:22.718Z,83.28
2023-04-02T00:55:52.784Z,83.08
2023-04-02T00:58:28.094Z,83.13
2023-04-02T01:00:59.012Z,83.62
2023-04-02T01:03:38.103Z,83.33
2023-04-02T01:06:12.133Z,83.31
2023-04-02T01:09:01.221Z,83.06
2023-04-02T01:11:45.379Z,82.46
2023-04-02T01:14:25.492Z,82.20
2023-04-02T01:17:03.104Z,82.44
2023-04-02T01:20:07.962Z,83.03
2023-04-02T01:22:47.577Z,83.05
2023-04-02T01:25:19.092Z,82.76
2023-04-02T01:27:54.519Z,82.45
2023-04-02T01:30:23.811Z,83.02
2023-04-02T01:32:54.756Z,83.22
2023-04-02T01:35:26.907Z,83.72
2023-04-02T01:38:04.440Z,83.70
2023-04-02T01:40:39.040Z,83.48
2023-04-02T01:43:16.460Z,83.16
2023-04-02T01:45:45.640Z,83.11
2023-04-02T01:48:19.533Z,82.85
2023-04-02T01:50:52.342Z,83.05
2023-04-02T01:53:25.165Z,82.81
2023-04-02T01:55:56.677Z,82.99
2023-04-02T01:58:33.813Z,83.13
2023-04-02T02:01:05.487Z,83.51
2023-04-02T02:03:35.375Z,83.92
2023-04-02T02:06:06.082Z,83.91
2023-04-02T02:08:39.702Z,83.56
2023-04-02T02:11:15.386Z,83.67
2023-04-02T02:13:48.997Z,83.85
2023-04-02T02:16:19.348Z,84.11
2023-04-02T02:18:51.509Z,84.28
2023-04-02T02:21:30.291Z,84.19
2023-04-02T02:24:00.209Z,83.87
2023-04-02T02:26:33.611Z,84.08
2023-04-02T02:29:06.445Z,84.27
2023-04-02T02:31:37.976Z,84.34
2023-04-02T02:34:17.269Z,84.09
2023-04-02T02:36:52.917Z,84.53
2023-04-02T02:39:25.944Z,84.61
2023-04-02T02:42:00.150Z,84.59
2023-04-02T02:44:36.686Z,85.02
2023-04-02T02:47:11.096Z,84.64
2023-04-02T02:49:43.519Z,84.80
2023-04-02T02:52:18.104Z,85.22
2023-04-02T02:54:50.775Z,84.83
2023-04-02T02:57:23.469Z,84.95
2023-04-02T02:59:55.379Z,84.59
2023-04-02T03:02:26.466Z,84.26
2023-04-02T03:04:57.969Z,84.35
2023-04-02T03:07:29.876Z,84.59
2023-04-02T03:10:07.194Z,84.83
2023-04-02T03:12:45.726Z,85.21
2023-04-02T03:15:22.309Z,85.64
2023-04-02T03:18:03.245Z,85.62
2023-04-02T03:20:38.229Z,85.35
2023-04-02T03:23:19.216Z,85.10
2023-04-02T03:25:56.468Z,84.84
2023-04-02T03:28:28.437Z,84.11
2023-04-02T03:38:36.781Z,83.02
2023-04-02T03:41:15.261Z,83.09
2023-04-02T03:43:48.337Z,83.04
2023-04-02T03:46:27.760Z,83.55
2023-04-02T03:49:00.558Z,83.89
2023-04-02T03:51:33.867Z,83.71
2023-04-02T03:54:03.493Z,83.73
2023-04-02T03:56:39.457Z,83.58
2023-04-02T03:59:17.215Z,83.39
2023-04-02T04:01:58.700Z,83.52
2023-04-02T04:04:33.274Z,83.86
2023-04-02T04:07:05.458Z,83.85
2023-04-02T04:09:37.520Z,83.86
2023-04-02T04:12:20.058Z,84.00
2023-04-02T04:14:55.029Z,83.92
2023-04-02T04:17:34.517Z,83.82
2023-04-02T04:20:15.327Z,83.66
2023-04-02T04:22:44.827Z,84.04
2023-04-02T04:25:22.998Z,84.12
2023-04-02T04:28:05.612Z,84.07
2023-04-02T04:30:55.480Z,84.02
2023-04-02T04:33:41.543Z,83.15
2023-04-02T04:36:29.369Z,83.41
2023-04-02T04:39:10.232Z,83.60
2023-04-02T04:41:41.794Z,83.30
2023-04-02T04:44:19.512Z,83.21
2023-04-02T04:46:57.253Z,83.23
2023-04-02T04:49:33.003Z,83.56
2023-04-02T04:52:09.385Z,83.55
2023-04-02T04:54:40.129Z,83.38
2023-04-02T04:57:23.591Z,83.48
2023-04-02T05:00:01.098Z,83.66
2023-04-02T05:02:36.768Z,83.61
2023-04-02T05:05:17.697Z,83.57
2023-04-02T05:07:51.012Z,83.57
2023-04-02T05:10:25.563Z,83.24
2023-04-02T05:12:58.582Z,83.42
2023-04-02T05:15:32.555Z,83.80
2023-04-02T05:18:15.758Z,84.06
2023-04-02T05:20:54.954Z,83.78
2023-04-02T05:23:27.865Z,83.52
2023-04-02T05:26:04.708Z,83.49
2023-04-02T05:28:48.352Z,83.75
2023-04-02T05:31:22.783Z,83.79
2023-04-02T05:33:55.920Z,83.40
2023-04-02T05:36:28.925Z,83.64
2023-04-02T05:38:59.373Z,83.81
2023-04-02T05:41:31.995Z,83.89
2023-04-02T05:44:09.050Z,84.03
2023-04-02T05:46:44.781Z,83.96
2023-04-02T05:49:22.482Z,83.95
2023-04-02T05:52:05.070Z,84.02
2023-04-02T05:54:38.764Z,83.92
2023-04-02T05:57:14.123Z,83.68
2023-04-02T05:59:47.844Z,83.67
2023-04-02T06:02:24.752Z,84.11
2023-04-02T06:05:00.836Z,84.23
2023-04-02T06:07:33.731Z,83.88
2023-04-02T06:10:10.541Z,84.03
2023-04-02T06:12:49.357Z,83.60
2023-04-02T06:15:21.075Z,83.64
2023-04-02T06:17:58.742Z,83.43
2023-04-02T06:20:28.331Z,83.33
2023-04-02T06:23:00.190Z,83.29
2023-04-02T06:25:31.620Z,83.07
2023-04-02T06:28:04.317Z,83.05
2023-04-02T06:30:37.313Z,83.13
2023-04-02T06:33:07.725Z,83.32
2023-04-02T06:35:39.658Z,84.14
2023-04-02T06:38:17.399Z,84.18
2023-04-02T06:40:52.467Z,83.79
2023-04-02T06:43:32.701Z,83.37
2023-04-02T06:46:07.797Z,83.21
2023-04-02T06:48:39.676Z,83.58
2023-04-02T06:51:11.779Z,83.44
2023-04-02T06:53:44.385Z,83.74
2023-04-02T06:56:26.785Z,83.50
2023-04-02T06:58:55.714Z,83.50
2023-04-02T07:01:28.424Z,82.99
2023-04-02T07:03:58.360Z,82.56
2023-04-02T07:06:27.264Z,82.25
2023-04-02T07:08:56.389Z,82.31
2023-04-02T07:11:25.902Z,82.71
2023-04-02T07:13:55.079Z,82.97
2023-04-02T07:16:26.942Z,83.29
2023-04-02T07:18:58.315Z,83.56
2023-04-02T07:21:28.112Z,82.91
2023-04-02T07:23:57.752Z,82.19
2023-04-02T07:26:28.268Z,82.45
2023-04-02T07:28:57.315Z,82.43
2023-04-02T07:31:28.002Z,82.97
2023-04-02T07:33:59.720Z,83.20
2023-04-02T07:36:29.817Z,83.26
2023-04-02T07:38:59.071Z,83.45
2023-04-02T07:41:28.731Z,83.37
2023-04-02T07:43:57.861Z,83.47
2023-04-02T07:46:26.961Z,83.43
2023-04-02T07:48:56.278Z,83.68
2023-04-02T07:51:26.461Z,83.14
2023-04-02T07:53:56.189Z,83.26
2023-04-02T07:56:27.006Z,83.11
2023-04-02T07:58:56.172Z,82.95
2023-04-02T08:01:26.832Z,83.47
2023-04-02T08:03:57.749Z,83.89
2023-04-02T08:06:27.925Z,84.11
2023-04-02T08:08:59.018Z,84.04
2023-04-02T08:11:29.752Z,84.12
2023-04-02T08:14:01.284Z,84.09
2023-04-02T08:16:45.624Z,84.52
2023-04-02T08:19:16.391Z,84.40
2023-04-02T08:21:45.847Z,84.26
2023-04-02T08:24:15.310Z,84.41
2023-04-02T08:26:45.542Z,84.22
2023-04-02T08:29:15.881Z,84.15
2023-04-02T08:31:45.573Z,84.38
2023-04-02T08:34:15.339Z,84.23
2023-04-02T08:36:46.311Z,84.28
2023-04-02T08:39:15.146Z,83.92
2023-04-02T08:41:50.538Z,83.42
2023-04-02T08:44:44.407Z,83.25
2023-04-02T08:47:15.925Z,83.21
2023-04-02T08:49:52.258Z,82.83
2023-04-02T08:52:25.178Z,82.61
2023-04-02T08:54:56.016Z,81.90
2023-04-02T08:57:34.440Z,82.36
2023-04-02T09:00:23.348Z,82.32
2023-04-02T09:02:58.752Z,81.76
2023-04-02T09:05:32.356Z,81.54
2023-04-02T09:08:05.884Z,81.04
2023-04-02T09:10:46.053Z,81.08
2023-04-02T09:13:24.546Z,81.24
2023-04-02T09:16:14.283Z,81.22
2023-04-02T09:18:46.309Z,80.68
2023-04-02T09:21:36.141Z,80.06
2023-04-02T09:24:07.012Z,79.77
2023-04-02T09:26:36.569Z,79.22
2023-04-02T09:29:25.520Z,79.43
2023-04-02T09:32:02.706Z,79.36
2023-04-02T09:34:33.412Z,78.73
2023-04-02T09:37:09.809Z,79.04
2023-04-02T09:39:38.996Z,79.23
2023-04-02T09:42:29.473Z,79.57
2023-04-02T09:45:16.426Z,79.65
2023-04-02T09:47:45.821Z,79.07
2023-04-02T09:50:33.045Z,78.03
2023-04-02T09:53:30.283Z,78.08
2023-04-02T09:56:14.962Z,77.75
2023-04-02T09:58:45.841Z,77.36
2023-04-02T10:01:31.077Z,77.94
2023-04-02T10:04:00.883Z,77.42
2023-04-02T10:06:32.091Z,77.48
2023-04-02T10:09:26.843Z,76.98
2023-04-02T10:11:58.755Z,77.75
2023-04-02T10:14:31.754Z,76.99
2023-04-02T10:17:08.681Z,76.76
2023-04-02T10:19:40.930Z,76.82
2023-04-02T10:22:16.157Z,76.63
2023-04-02T10:24:47.040Z,76.10
2023-04-02T10:27:26.406Z,75.61
2023-04-02T10:30:19.556Z,76.21
2023-04-02T10:32:56.142Z,75.22
2023-04-02T10:35:38.781Z,75.30
2023-04-02T10:38:29.444Z,74.96
2023-04-02T10:41:03.700Z,74.87
2023-04-02T10:43:44.542Z,74.94
2023-04-02T10:46:24.966Z,74.64
2023-04-02T10:49:04.049Z,74.04
2023-04-02T10:51:40.814Z,73.91
2023-04-02T10:54:27.518Z,74.43
2023-04-02T10:57:11.074Z,74.92
2023-04-02T10:59:44.571Z,74.38
2023-04-02T11:02:31.719Z,73.96
2023-04-02T11:05:08.482Z,74.10
2023-04-02T11:07:50.518Z,74.14
2023-04-02T11:10:21.425Z,74.10
2023-04-02T11:12:56.899Z,73.94
2023-04-02T11:15:26.841Z,74.08
2023-04-02T11:17:56.125Z,74.04
2023-04-02T11:21:00.253Z,73.58
2023-04-02T11:23:31.909Z,73.80
2023-04-02T11:26:34.968Z,73.70
2023-04-02T11:29:27.879Z,74.29
2023-04-02T11:32:29.900Z,74.49
2023-04-02T11:35:24.588Z,73.99
2023-04-02T11:37:54.589Z,73.16
2023-04-02T11:40:48.919Z,73.36
2023-04-02T11:43:52.220Z,73.91
2023-04-02T11:46:41.163Z,74.13
2023-04-02T11:49:37.112Z,74.04
2023-04-02T11:52:20.454Z,73.26
2023-04-02T11:54:57.706Z,73.43
2023-04-02T11:57:47.202Z,73.47
2023-04-02T12:00:30.733Z,73.01
2023-04-02T12:03:16.966Z,73.06
2023-04-02T12:05:54.958Z,73.55
2023-04-02T12:08:44.283Z,73.39
2023-04-02T12:11:31.303Z,73.44
2023-04-02T12:14:08.155Z,73.10
2023-04-02T12:16:40.136Z,73.41
2023-04-02T12:19:15.648Z,73.78
2023-04-02T12:21:47.521Z,73.96
2023-04-02T12:24:22.902Z,74.27
2023-04-02T12:27:14.590Z,74.71
2023-04-02T12:29:43.971Z,75.06
2023-04-02T12:32:25.911Z,75.11
2023-04-02T12:34:58.356Z,75.65
2023-04-02T12:37:31.605Z,75.62
2023-04-02T12:40:06.860Z,75.72
2023-04-02T12:42:37.811Z,75.76
2023-04-02T12:45:24.925Z,76.15
2023-04-02T12:47:55.300Z,76.20
2023-04-02T12:50:24.747Z,76.03
2023-04-02T12:52:58.038Z,76.29
2023-04-02T12:55:28.484Z,76.57
2023-04-02T12:57:59.766Z,76.53
2023-04-02T13:00:39.489Z,76.87
2023-04-02T13:03:21.554Z,77.15
2023-04-02T13:05:55.761Z,77.50
2023-04-02T13:08:29.120Z,77.74
2023-04-02T13:11:01.249Z,77.82
2023-04-02T13:13:34.602Z,77.63
2023-04-02T13:16:07.360Z,77.94
2023-04-02T13:18:38.309Z,78.08
2023-04-02T13:21:27.738Z,78.07
2023-04-02T13:23:57.784Z,77.97
2023-04-02T13:26:29.516Z,78.05
2023-04-02T13:29:00.970Z,78.12
2023-04-02T13:31:31.705Z,78.40
2023-04-02T13:34:02.272Z,78.54
2023-04-02T13:36:32.933Z,78.24
2023-04-02T13:39:03.278Z,78.60
2023-04-02T13:41:35.170Z,78.62
2023-04-02T13:44:05.899Z,79.04
2023-04-02T13:46:36.468Z,79.37
2023-04-02T13:49:10.902Z,79.35
2023-04-02T13:51:44.208Z,79.12
2023-04-02T13:54:35.817Z,78.62
2023-04-02T13:57:06.082Z,78.89
2023-04-02T13:59:35.542Z,79.12
2023-04-02T14:02:11.166Z,79.19
2023-04-02T14:04:50.156Z,79.39
2023-04-02T14:07:35.140Z,79.30
2023-04-02T14:10:17.951Z,79.05
2023-04-02T14:13:02.400Z,78.82
2023-04-02T14:15:47.585Z,79.31
2023-04-02T14:18:39.490Z,79.56
2023-04-02T14:21:22.387Z,79.63
2023-04-02T14:24:06.368Z,79.94
2023-04-02T14:26:46.001Z,79.91
2023-04-02T14:29:23.432Z,79.95
2023-04-02T14:32:03.769Z,80.23
2023-04-02T14:34:41.185Z,80.48
2023-04-02T14:37:20.792Z,80.77
2023-04-02T14:40:04.654Z,80.77
2023-04-02T14:42:41.385Z,80.89
2023-04-02T14:45:21.072Z,80.81
2023-04-02T14:48:00.367Z,80.70
2023-04-02T14:50:34.796Z,80.81
2023-04-02T14:53:13.749Z,80.73
2023-04-02T14:55:52.432Z,80.95
2023-04-02T14:58:27.715Z,81.05
2023-04-02T15:01:03.231Z,81.01
2023-04-02T15:03:46.060Z,80.98
2023-04-02T15:06:22.464Z,81.01
2023-04-02T15:09:08.997Z,80.82
2023-04-02T15:11:44.008Z,80.95
2023-04-02T15:14:19.015Z,80.79
2023-04-02T15:16:48.417Z,80.94
2023-04-02T15:19:20.534Z,80.89
2023-04-02T15:22:10.684Z,81.30
2023-04-02T15:24:48.839Z,81.54
2023-04-02T15:27:28.781Z,81.50
2023-04-02T15:30:09.489Z,81.81
2023-04-02T15:32:42.576Z,82.15
2023-04-02T15:35:23.730Z,82.33
2023-04-02T15:38:01.093Z,82.36
2023-04-02T15:40:50.684Z,82.81
2023-04-02T15:43:25.602Z,82.96
2023-04-02T15:46:06.624Z,83.44
2023-04-02T15:48:57.916Z,83.86
2023-04-02T15:51:47.228Z,83.73
2023-04-02T15:54:37.347Z,83.66
2023-04-02T15:57:20.356Z,83.74
2023-04-02T16:00:22.867Z,83.81
2023-04-02T16:03:18.260Z,84.49
2023-04-02T16:06:02.840Z,84.62
2023-04-02T16:08:46.606Z,85.04
2023-04-02T16:11:20.814Z,85.02
2023-04-02T16:13:54.906Z,84.90
2023-04-02T16:16:30.874Z,85.33
2023-04-02T16:19:15.806Z,85.34
2023-04-02T16:21:55.733Z,85.26
2023-04-02T16:24:25.062Z,85.00
2023-04-02T16:27:02.268Z,85.42
2023-04-02T16:29:55.146Z,85.64
2023-04-02T16:32:48.050Z,84.95
2023-04-02T16:35:42.621Z,84.49
2023-04-02T16:38:16.213Z,84.42
2023-04-02T16:41:08.320Z,84.76
2023-04-02T16:43:54.808Z,84.93
2023-04-02T16:46:39.639Z,85.60
2023-04-02T16:49:24.595Z,85.81
2023-04-02T16:52:09.608Z,86.09
2023-04-02T16:54:44.723Z,86.47
2023-04-02T16:57:39.153Z,86.26
2023-04-02T17:00:23.934Z,86.47
2023-04-02T17:03:12.229Z,86.69
2023-04-02T17:05:55.163Z,86.35
2023-04-02T17:08:27.971Z,86.28
2023-04-02T17:11:03.254Z,86.44
2023-04-02T17:13:42.090Z,86.66
2023-04-02T17:16:21.114Z,86.62
2023-04-02T17:18:59.290Z,86.54
2023-04-02T17:21:36.379Z,86.77
2023-04-02T17:24:18.035Z,87.09
2023-04-02T17:26:53.032Z,87.15
2023-04-02T17:29:33.023Z,87.26
2023-04-02T17:32:06.944Z,87.20
2023-04-02T17:34:37.134Z,86.92
2023-04-02T17:37:19.963Z,86.91
2023-04-02T17:39:59.632Z,87.42
2023-04-02T17:42:47.912Z,87.36
2023-04-02T17:45:27.490Z,86.63
2023-04-02T17:48:04.363Z,86.17
2023-04-02T17:51:10.517Z,86.40
2023-04-02T17:53:56.790Z,86.78
2023-04-02T17:56:49.466Z,87.07
2023-04-02T17:59:38.851Z,87.49
2023-04-02T18:02:27.854Z,87.15
2023-04-02T18:05:11.707Z,86.93
2023-04-02T18:07:54.532Z,87.03
2023-04-02T18:10:39.318Z,86.92
2023-04-02T18:13:24.564Z,87.57
2023-04-02T18:16:11.125Z,87.82
2023-04-02T18:19:03.494Z,87.57
2023-04-02T18:21:42.087Z,87.71
2023-04-02T18:24:34.832Z,87.61
2023-04-02T18:27:32.797Z,87.50
2023-04-02T18:30:20.012Z,87.65
2023-04-02T18:33:12.060Z,87.44
2023-04-02T18:35:52.990Z,87.06
2023-04-02T18:38:38.108Z,86.66
2023-04-02T18:41:28.744Z,87.43
2023-04-02T18:44:10.947Z,87.75
2023-04-02T18:46:50.284Z,87.46
2023-04-02T18:49:29.873Z,87.47
2023-04-02T18:52:12.075Z,87.80
2023-04-02T18:54:47.688Z,87.91
2023-04-02T18:57:23.664Z,87.97
2023-04-02T19:00:07.061Z,87.91
2023-04-02T19:02:49.495Z,88.04
2023-04-02T19:05:27.927Z,87.64
2023-04-02T19:08:05.032Z,87.56
2023-04-02T19:10:43.186Z,87.82
2023-04-02T19:13:21.484Z,88.10
2023-04-02T19:16:10.894Z,88.31
2023-04-02T19:18:56.048Z,88.41
2023-04-02T19:21:29.166Z,87.66
2023-04-02T19:24:16.227Z,86.99
2023-04-02T19:26:57.227Z,86.93
2023-04-02T19:29:46.364Z,86.62
2023-04-02T19:32:24.432Z,86.25
2023-04-02T19:35:06.430Z,85.73
2023-04-02T19:37:42.743Z,85.46
2023-04-02T19:40:28.183Z,84.92
2023-04-02T19:43:00.003Z,83.88
2023-04-02T19:45:36.476Z,82.75
2023-04-02T19:48:18.589Z,82.70
2023-04-02T19:50:53.929Z,80.61
2023-04-02T19:53:26.660Z,78.63
2023-04-02T19:56:02.939Z,75.96
2023-04-02T19:58:35.704Z,76.58
2023-04-02T20:01:07.628Z,76.58
2023-04-02T20:03:43.599Z,77.38
2023-04-02T20:06:15.302Z,77.56
2023-04-02T20:08:47.205Z,76.55
2023-04-02T20:11:22.957Z,76.58
2023-04-02T20:13:55.966Z,76.30
2023-04-02T20:16:28.460Z,76.40
2023-04-02T20:19:03.881Z,76.59
2023-04-02T20:21:41.453Z,76.87
2023-04-02T20:24:12.169Z,77.11
2023-04-02T20:26:45.545Z,77.01
2023-04-02T20:29:16.622Z,77.35
2023-04-02T20:31:47.253Z,77.15
2023-04-02T20:34:18.376Z,77.46
2023-04-02T20:36:48.808Z,77.64
2023-04-02T20:39:23.160Z,77.17
2023-04-02T20:41:52.994Z,77.76
2023-04-02T20:44:23.017Z,77.44
2023-04-02T20:46:54.078Z,77.91
2023-04-02T20:49:24.453Z,77.67
2023-04-02T20:51:53.600Z,78.01
2023-04-02T20:54:23.119Z,77.33
2023-04-02T20:56:52.255Z,77.36
2023-04-02T20:59:22.231Z,77.09
2023-04-02T21:01:51.375Z,77.03
2023-04-02T21:04:21.734Z,76.91
2023-04-02T21:06:56.428Z,77.02
2023-04-02T21:09:25.441Z,76.93
2023-04-02T21:11:54.325Z,76.35
2023-04-02T21:14:23.630Z,76.04
2023-04-02T21:16:52.567Z,76.23
2023-04-02T21:19:21.391Z,76.36
2023-04-02T21:21:50.246Z,75.93
2023-04-02T21:24:19.161Z,74.93
2023-04-02T21:26:48.325Z,75.24
2023-04-02T21:29:17.438Z,75.20
2023-04-02T21:31:46.403Z,75.37
2023-04-02T21:34:17.078Z,74.34
2023-04-02T21:36:48.751Z,74.15
2023-04-02T21:39:20.841Z,74.08
2023-04-02T21:41:51.136Z,74.11
2023-04-02T21:44:21.193Z,73.95
2023-04-02T21:46:52.138Z,74.28
2023-04-02T21:49:23.651Z,74.04
2023-04-02T21:51:52.540Z,72.31
2023-04-02T21:54:22.085Z,71.30
2023-04-02T21:56:51.211Z,70.59
2023-04-02T21:59:20.470Z,71.24
2023-04-02T22:01:51.529Z,71.28
2023-04-02T22:04:22.190Z,71.18
2023-04-02T22:06:52.633Z,71.57
2023-04-02T22:09:23.641Z,71.49
2023-04-02T22:11:54.923Z,71.35
2023-04-02T22:14:24.065Z,71.87
2023-04-02T22:16:53.123Z,70.64
2023-04-02T22:19:22.908Z,71.12
2023-04-02T22:21:53.534Z,71.12
2023-04-02T22:24:22.827Z,70.81
2023-04-02T22:26:52.156Z,71.51
2023-04-02T22:29:21.644Z,71.45
2023-04-02T22:31:50.591Z,70.83
2023-04-02T22:34:20.580Z,70.76
2023-04-02T22:36:49.853Z,70.63
2023-04-02T22:39:18.928Z,70.24
2023-04-02T22:41:52.614Z,70.06
2023-04-02T22:44:21.918Z,70.31
2023-04-02T22:46:51.174Z,69.98
2023-04-02T22:49:20.515Z,70.08
2023-04-02T22:51:49.533Z,70.03
2023-04-02T22:54:18.902Z,70.01
2023-04-02T22:56:47.798Z,69.23
2023-04-02T22:59:18.072Z,69.07
2023-04-02T23:01:47.148Z,69.13
2023-04-02T23:04:16.024Z,69.40
2023-04-02T23:06:45.432Z,69.08
2023-04-02T23:09:14.711Z,68.52
2023-04-02T23:11:44.428Z,68.18
2023-04-02T23:14:13.449Z,67.57
2023-04-02T23:16:43.228Z,66.99
2023-04-02T23:19:12.161Z,66.87
2023-04-02T23:21:41.010Z,67.06
2023-04-02T23:24:12.545Z,66.60
2023-04-02T23:26:41.866Z,66.17
2023-04-02T23:29:12.094Z,66.17
2023-04-02T23:31:41.311Z,66.19
2023-04-02T23:34:11.300Z,66.30
2023-04-02T23:36:40.910Z,66.00
2023-04-02T23:39:13.280Z,65.97
2023-04-02T23:41:43.556Z,66.03
2023-04-02T23:44:14.208Z,65.99
2023-04-02T23:46:43.193Z,66.04
2023-04-02T23:49:13.187Z,65.80
2023-04-02T23:51:42.023Z,65.69
2023-04-02T23:54:12.548Z,65.74
2023-04-02T23:56:41.897Z,65.44
2023-04-02T23:59:11.042Z,65.57
